sensor_id;sensor_type;location;lat;lon;timestamp;temperature;humidity
22192;DHT22;11261;52.456;10.850;2023-01-16T00:00:28;5.90;99.90
22192;DHT22;11261;52.456;10.850;2023-01-16T00:02:57;5.90;99.90
22192;DHT22;11261;52.456;10.850;2023-01-16T00:05:26;5.80;99.90
22192;DHT22;11261;52.456;10.850;2023-01-16T00:07:55;5.80;99.90
22192;DHT22;11261;52.456;10.850;2023-01-16T00:10:24;5.80;99.90
22192;DHT22;11261;52.456;10.850;2023-01-16T00:12:52;5.80;99.90
22192;DHT22;11261;52.456;10.850;2023-01-16T00:15:20;5.80;99.90
22192;DHT22;11261;52.456;10.850;2023-01-16T00:17:49;5.80;99.90
22192;DHT22;11261;52.456;10.850;2023-01-16T00:20:17;5.80;99.90
22192;DHT22;11261;52.456;10.850;2023-01-16T00:22:46;5.80;99.90
22192;DHT22;11261;52.456;10.850;2023-01-16T00:25:15;5.80;99.90
22192;DHT22;11261;52.456;10.850;2023-01-16T00:27:44;5.90;99.90
22192;DHT22;11261;52.456;10.850;2023-01-16T00:30:12;5.80;99.90
22192;DHT22;11261;52.456;10.850;2023-01-16T00:32:40;5.80;99.90
22192;DHT22;11261;52.456;10.850;2023-01-16T00:35:09;5.80;99.90
22192;DHT22;11261;52.456;10.850;2023-01-16T00:37:37;5.70;99.90
22192;DHT22;11261;52.456;10.850;2023-01-16T00:40:06;5.80;99.90
22192;DHT22;11261;52.456;10.850;2023-01-16T00:42:36;5.80;99.90
22192;DHT22;11261;52.456;10.850;2023-01-16T00:45:05;5.80;99.90
22192;DHT22;11261;52.456;10.850;2023-01-16T00:47:34;5.70;99.90
22192;DHT22;11261;52.456;10.850;2023-01-16T00:50:02;5.70;99.90
22192;DHT22;11261;52.456;10.850;2023-01-16T00:52:30;5.60;99.90
22192;DHT22;11261;52.456;10.850;2023-01-16T00:54:59;5.60;99.90
22192;DHT22;11261;52.456;10.850;2023-01-16T00:57:27;5.60;99.90
22192;DHT22;11261;52.456;10.850;2023-01-16T00:59:57;5.60;99.90
22192;DHT22;11261;52.456;10.850;2023-01-16T01:02:25;5.60;99.90
22192;DHT22;11261;52.456;10.850;2023-01-16T01:04:53;5.60;99.90
22192;DHT22;11261;52.456;10.850;2023-01-16T01:07:22;5.60;99.90
22192;DHT22;11261;52.456;10.850;2023-01-16T01:09:50;5.50;99.90
22192;DHT22;11261;52.456;10.850;2023-01-16T01:12:18;5.50;99.90
22192;DHT22;11261;52.456;10.850;2023-01-16T01:14:47;5.50;99.90
22192;DHT22;11261;52.456;10.850;2023-01-16T01:17:16;5.50;99.90
22192;DHT22;11261;52.456;10.850;2023-01-16T01:19:45;5.50;99.90
22192;DHT22;11261;52.456;10.850;2023-01-16T01:22:13;5.40;99.90
22192;DHT22;11261;52.456;10.850;2023-01-16T01:24:43;5.50;99.90
22192;DHT22;11261;52.456;10.850;2023-01-16T01:27:12;5.50;99.90
22192;DHT22;11261;52.456;10.850;2023-01-16T01:29:40;5.50;99.90
22192;DHT22;11261;52.456;10.850;2023-01-16T01:32:08;5.50;99.90
22192;DHT22;11261;52.456;10.850;2023-01-16T01:34:38;5.50;99.90
22192;DHT22;11261;52.456;10.850;2023-01-16T01:37:07;5.50;99.90
22192;DHT22;11261;52.456;10.850;2023-01-16T01:39:35;5.50;99.90
22192;DHT22;11261;52.456;10.850;2023-01-16T01:42:04;5.50;99.90
22192;DHT22;11261;52.456;10.850;2023-01-16T01:44:53;5.50;99.90
22192;DHT22;11261;52.456;10.850;2023-01-16T01:47:27;5.50;99.90
22192;DHT22;11261;52.456;10.850;2023-01-16T01:50:01;5.50;99.90
22192;DHT22;11261;52.456;10.850;2023-01-16T01:52:32;5.50;99.90
22192;DHT22;11261;52.456;10.850;2023-01-16T01:55:04;5.40;99.90
22192;DHT22;11261;52.456;10.850;2023-01-16T01:57:35;5.50;99.90
22192;DHT22;11261;52.456;10.850;2023-01-16T02:00:08;5.40;99.90
22192;DHT22;11261;52.456;10.850;2023-01-16T02:02:41;5.40;99.90
22192;DHT22;11261;52.456;10.850;2023-01-16T02:05:14;5.40;99.90
22192;DHT22;11261;52.456;10.850;2023-01-16T02:07:45;5.40;99.90
22192;DHT22;11261;52.456;10.850;2023-01-16T02:10:20;5.40;99.90
22192;DHT22;11261;52.456;10.850;2023-01-16T02:12:50;5.30;99.90
22192;DHT22;11261;52.456;10.850;2023-01-16T02:15:20;5.30;99.90
22192;DHT22;11261;52.456;10.850;2023-01-16T02:17:49;5.30;99.90
22192;DHT22;11261;52.456;10.850;2023-01-16T02:20:45;5.30;99.90
22192;DHT22;11261;52.456;10.850;2023-01-16T02:26:37;5.40;99.90
22192;DHT22;11261;52.456;10.850;2023-01-16T02:32:31;5.50;99.90
22192;DHT22;11261;52.456;10.850;2023-01-16T02:35:27;5.50;99.90
22192;DHT22;11261;52.456;10.850;2023-01-16T02:38:01;5.40;99.90
22192;DHT22;11261;52.456;10.850;2023-01-16T02:40:39;5.40;99.90
22192;DHT22;11261;52.456;10.850;2023-01-16T02:43:18;5.40;99.90
22192;DHT22;11261;52.456;10.850;2023-01-16T02:45:57;5.40;99.90
22192;DHT22;11261;52.456;10.850;2023-01-16T02:48:38;5.40;99.90
22192;DHT22;11261;52.456;10.850;2023-01-16T02:51:14;5.40;99.90
22192;DHT22;11261;52.456;10.850;2023-01-16T02:53:48;5.40;99.90
22192;DHT22;11261;52.456;10.850;2023-01-16T02:56:20;5.40;99.90
22192;DHT22;11261;52.456;10.850;2023-01-16T02:58:51;5.40;99.90
22192;DHT22;11261;52.456;10.850;2023-01-16T03:01:20;5.40;99.90
22192;DHT22;11261;52.456;10.850;2023-01-16T03:04:04;5.40;99.90
22192;DHT22;11261;52.456;10.850;2023-01-16T03:06:42;5.40;99.90
22192;DHT22;11261;52.456;10.850;2023-01-16T03:09:23;5.40;99.90
22192;DHT22;11261;52.456;10.850;2023-01-16T03:12:10;5.30;99.90
22192;DHT22;11261;52.456;10.850;2023-01-16T03:14:44;5.30;99.90
22192;DHT22;11261;52.456;10.850;2023-01-16T03:17:26;5.30;99.90
22192;DHT22;11261;52.456;10.850;2023-01-16T03:20:09;5.30;99.90
22192;DHT22;11261;52.456;10.850;2023-01-16T03:22:41;5.40;99.90
22192;DHT22;11261;52.456;10.850;2023-01-16T03:25:19;5.40;99.90
22192;DHT22;11261;52.456;10.850;2023-01-16T03:27:55;5.30;99.90
22192;DHT22;11261;52.456;10.850;2023-01-16T03:30:28;5.30;99.90
22192;DHT22;11261;52.456;10.850;2023-01-16T03:33:02;5.30;99.90
22192;DHT22;11261;52.456;10.850;2023-01-16T03:35:37;5.30;99.90
22192;DHT22;11261;52.456;10.850;2023-01-16T03:38:10;5.30;99.90
22192;DHT22;11261;52.456;10.850;2023-01-16T03:40:41;5.30;99.90
22192;DHT22;11261;52.456;10.850;2023-01-16T03:43:13;5.30;99.90
22192;DHT22;11261;52.456;10.850;2023-01-16T03:45:45;5.30;99.90
22192;DHT22;11261;52.456;10.850;2023-01-16T03:48:19;5.30;99.90
22192;DHT22;11261;52.456;10.850;2023-01-16T03:50:53;5.20;99.90
22192;DHT22;11261;52.456;10.850;2023-01-16T03:53:26;5.20;99.90
22192;DHT22;11261;52.456;10.850;2023-01-16T03:56:00;5.20;99.90
22192;DHT22;11261;52.456;10.850;2023-01-16T03:58:48;5.20;99.90
22192;DHT22;11261;52.456;10.850;2023-01-16T04:01:24;5.10;99.90
22192;DHT22;11261;52.456;10.850;2023-01-16T04:03:59;5.10;99.90
22192;DHT22;11261;52.456;10.850;2023-01-16T04:06:34;5.00;99.90
22192;DHT22;11261;52.456;10.850;2023-01-16T04:09:06;5.00;99.90
22192;DHT22;11261;52.456;10.850;2023-01-16T04:11:38;4.90;99.90
22192;DHT22;11261;52.456;10.850;2023-01-16T04:14:09;4.90;99.90
22192;DHT22;11261;52.456;10.850;2023-01-16T04:16:39;4.80;99.90
22192;DHT22;11261;52.456;10.850;2023-01-16T04:19:12;4.80;99.90
22192;DHT22;11261;52.456;10.850;2023-01-16T04:21:45;4.90;99.90
22192;DHT22;11261;52.456;10.850;2023-01-16T04:24:14;4.90;99.90
22192;DHT22;11261;52.456;10.850;2023-01-16T04:26:43;4.90;99.90
22192;DHT22;11261;52.456;10.850;2023-01-16T04:29:11;4.90;99.90
22192;DHT22;11261;52.456;10.850;2023-01-16T04:31:40;4.90;99.90
22192;DHT22;11261;52.456;10.850;2023-01-16T04:34:08;4.90;99.90
22192;DHT22;11261;52.456;10.850;2023-01-16T04:36:36;5.00;99.90
22192;DHT22;11261;52.456;10.850;2023-01-16T04:39:06;4.90;99.90
22192;DHT22;11261;52.456;10.850;2023-01-16T04:41:34;4.90;99.90
22192;DHT22;11261;52.456;10.850;2023-01-16T04:44:07;4.80;99.90
22192;DHT22;11261;52.456;10.850;2023-01-16T04:46:36;4.80;99.90
22192;DHT22;11261;52.456;10.850;2023-01-16T04:49:05;4.70;99.90
22192;DHT22;11261;52.456;10.850;2023-01-16T04:51:34;4.70;99.90
22192;DHT22;11261;52.456;10.850;2023-01-16T04:54:03;4.60;99.90
22192;DHT22;11261;52.456;10.850;2023-01-16T04:56:33;4.60;99.90
22192;DHT22;11261;52.456;10.850;2023-01-16T04:59:02;4.60;99.90
22192;DHT22;11261;52.456;10.850;2023-01-16T05:01:31;4.60;99.90
22192;DHT22;11261;52.456;10.850;2023-01-16T05:04:02;4.60;99.90
22192;DHT22;11261;52.456;10.850;2023-01-16T05:06:31;4.50;99.90
22192;DHT22;11261;52.456;10.850;2023-01-16T05:09:00;4.50;99.90
22192;DHT22;11261;52.456;10.850;2023-01-16T05:11:28;4.50;99.90
22192;DHT22;11261;52.456;10.850;2023-01-16T05:13:58;4.50;99.90
22192;DHT22;11261;52.456;10.850;2023-01-16T05:16:27;4.50;99.90
22192;DHT22;11261;52.456;10.850;2023-01-16T05:18:55;4.40;99.90
22192;DHT22;11261;52.456;10.850;2023-01-16T05:21:24;4.40;99.90
22192;DHT22;11261;52.456;10.850;2023-01-16T05:23:52;4.50;99.90
22192;DHT22;11261;52.456;10.850;2023-01-16T05:26:20;4.40;99.90
22192;DHT22;11261;52.456;10.850;2023-01-16T05:28:48;4.40;99.90
22192;DHT22;11261;52.456;10.850;2023-01-16T05:31:18;4.30;99.90
22192;DHT22;11261;52.456;10.850;2023-01-16T05:33:47;4.30;99.90
22192;DHT22;11261;52.456;10.850;2023-01-16T05:36:15;4.30;99.90
22192;DHT22;11261;52.456;10.850;2023-01-16T05:38:43;4.30;99.90
22192;DHT22;11261;52.456;10.850;2023-01-16T05:41:13;4.30;99.90
22192;DHT22;11261;52.456;10.850;2023-01-16T05:43:41;4.40;99.90
22192;DHT22;11261;52.456;10.850;2023-01-16T05:46:09;4.30;99.90
22192;DHT22;11261;52.456;10.850;2023-01-16T05:48:39;4.20;99.90
22192;DHT22;11261;52.456;10.850;2023-01-16T05:51:07;4.20;99.90
22192;DHT22;11261;52.456;10.850;2023-01-16T05:53:36;4.20;99.90
22192;DHT22;11261;52.456;10.850;2023-01-16T05:56:07;4.20;99.90
22192;DHT22;11261;52.456;10.850;2023-01-16T05:58:36;4.20;99.90
22192;DHT22;11261;52.456;10.850;2023-01-16T06:01:04;4.20;99.90
22192;DHT22;11261;52.456;10.850;2023-01-16T06:03:33;4.10;99.90
22192;DHT22;11261;52.456;10.850;2023-01-16T06:06:03;4.20;99.90
22192;DHT22;11261;52.456;10.850;2023-01-16T06:08:31;4.10;99.90
22192;DHT22;11261;52.456;10.850;2023-01-16T06:11:00;4.10;99.90
22192;DHT22;11261;52.456;10.850;2023-01-16T06:13:28;4.10;99.90
22192;DHT22;11261;52.456;10.850;2023-01-16T06:15:56;4.10;99.90
22192;DHT22;11261;52.456;10.850;2023-01-16T06:18:24;4.00;99.90
22192;DHT22;11261;52.456;10.850;2023-01-16T06:20:52;4.00;99.90
22192;DHT22;11261;52.456;10.850;2023-01-16T06:23:22;4.00;99.90
22192;DHT22;11261;52.456;10.850;2023-01-16T06:25:50;4.00;99.90
22192;DHT22;11261;52.456;10.850;2023-01-16T06:28:19;3.90;99.90
22192;DHT22;11261;52.456;10.850;2023-01-16T06:30:50;3.90;99.90
22192;DHT22;11261;52.456;10.850;2023-01-16T06:33:19;3.90;99.90
22192;DHT22;11261;52.456;10.850;2023-01-16T06:35:47;4.00;99.90
22192;DHT22;11261;52.456;10.850;2023-01-16T06:38:16;3.90;99.90
22192;DHT22;11261;52.456;10.850;2023-01-16T06:40:46;3.90;99.90
22192;DHT22;11261;52.456;10.850;2023-01-16T06:43:14;3.90;99.90
22192;DHT22;11261;52.456;10.850;2023-01-16T06:45:43;3.90;99.90
22192;DHT22;11261;52.456;10.850;2023-01-16T06:48:12;3.90;99.90
22192;DHT22;11261;52.456;10.850;2023-01-16T06:50:40;3.90;99.90
22192;DHT22;11261;52.456;10.850;2023-01-16T06:53:09;3.90;99.90
22192;DHT22;11261;52.456;10.850;2023-01-16T06:55:37;4.00;99.90
22192;DHT22;11261;52.456;10.850;2023-01-16T06:58:07;4.00;99.90
22192;DHT22;11261;52.456;10.850;2023-01-16T07:00:36;4.10;99.90
22192;DHT22;11261;52.456;10.850;2023-01-16T07:03:04;4.20;99.90
22192;DHT22;11261;52.456;10.850;2023-01-16T07:05:32;4.20;99.90
22192;DHT22;11261;52.456;10.850;2023-01-16T07:08:01;4.20;99.90
22192;DHT22;11261;52.456;10.850;2023-01-16T07:10:29;4.20;99.90
22192;DHT22;11261;52.456;10.850;2023-01-16T07:12:58;4.10;99.90
22192;DHT22;11261;52.456;10.850;2023-01-16T07:15:27;4.10;99.90
22192;DHT22;11261;52.456;10.850;2023-01-16T07:18:14;4.10;99.90
22192;DHT22;11261;52.456;10.850;2023-01-16T07:21:02;4.10;99.90
22192;DHT22;11261;52.456;10.850;2023-01-16T07:23:51;4.10;99.90
22192;DHT22;11261;52.456;10.850;2023-01-16T07:26:21;4.10;99.90
22192;DHT22;11261;52.456;10.850;2023-01-16T07:28:51;4.10;99.90
22192;DHT22;11261;52.456;10.850;2023-01-16T07:31:22;4.10;99.90
22192;DHT22;11261;52.456;10.850;2023-01-16T07:33:50;4.10;99.90
22192;DHT22;11261;52.456;10.850;2023-01-16T07:36:19;4.00;99.90
22192;DHT22;11261;52.456;10.850;2023-01-16T07:38:47;4.00;99.90
22192;DHT22;11261;52.456;10.850;2023-01-16T07:41:16;4.00;99.90
22192;DHT22;11261;52.456;10.850;2023-01-16T07:43:44;4.00;99.90
22192;DHT22;11261;52.456;10.850;2023-01-16T07:46:12;4.00;99.90
22192;DHT22;11261;52.456;10.850;2023-01-16T07:48:42;4.20;99.90
22192;DHT22;11261;52.456;10.850;2023-01-16T07:51:10;4.40;99.90
22192;DHT22;11261;52.456;10.850;2023-01-16T07:53:38;4.50;99.90
22192;DHT22;11261;52.456;10.850;2023-01-16T07:56:07;4.60;99.90
22192;DHT22;11261;52.456;10.850;2023-01-16T07:58:35;4.70;99.90
22192;DHT22;11261;52.456;10.850;2023-01-16T08:01:05;4.80;99.90
22192;DHT22;11261;52.456;10.850;2023-01-16T08:03:33;4.90;99.90
22192;DHT22;11261;52.456;10.850;2023-01-16T08:06:03;5.00;99.90
22192;DHT22;11261;52.456;10.850;2023-01-16T08:08:31;5.00;99.90
22192;DHT22;11261;52.456;10.850;2023-01-16T08:11:00;4.90;99.90
22192;DHT22;11261;52.456;10.850;2023-01-16T08:13:50;5.20;99.90
22192;DHT22;11261;52.456;10.850;2023-01-16T08:16:19;5.30;99.90
22192;DHT22;11261;52.456;10.850;2023-01-16T08:18:47;5.40;99.90
22192;DHT22;11261;52.456;10.850;2023-01-16T08:21:17;5.20;99.90
22192;DHT22;11261;52.456;10.850;2023-01-16T08:23:46;5.30;99.90
22192;DHT22;11261;52.456;10.850;2023-01-16T08:26:14;5.40;99.90
22192;DHT22;11261;52.456;10.850;2023-01-16T08:28:42;5.40;99.90
22192;DHT22;11261;52.456;10.850;2023-01-16T08:31:12;5.50;99.90
22192;DHT22;11261;52.456;10.850;2023-01-16T08:33:43;5.70;99.90
22192;DHT22;11261;52.456;10.850;2023-01-16T08:36:12;5.70;99.90
22192;DHT22;11261;52.456;10.850;2023-01-16T08:38:44;5.60;99.90
22192;DHT22;11261;52.456;10.850;2023-01-16T08:41:12;5.70;99.90
22192;DHT22;11261;52.456;10.850;2023-01-16T08:43:54;5.70;99.90
22192;DHT22;11261;52.456;10.850;2023-01-16T08:46:40;5.70;99.90
22192;DHT22;11261;52.456;10.850;2023-01-16T08:49:26;6.10;99.90
22192;DHT22;11261;52.456;10.850;2023-01-16T08:52:12;6.00;99.90
22192;DHT22;11261;52.456;10.850;2023-01-16T08:54:42;6.20;99.90
22192;DHT22;11261;52.456;10.850;2023-01-16T08:57:11;5.90;99.90
22192;DHT22;11261;52.456;10.850;2023-01-16T08:59:39;6.00;99.90
22192;DHT22;11261;52.456;10.850;2023-01-16T09:02:10;5.80;99.90
22192;DHT22;11261;52.456;10.850;2023-01-16T09:04:38;5.70;99.90
22192;DHT22;11261;52.456;10.850;2023-01-16T09:07:07;5.80;99.90
22192;DHT22;11261;52.456;10.850;2023-01-16T09:09:35;6.10;99.90
22192;DHT22;11261;52.456;10.850;2023-01-16T09:12:05;6.30;99.90
22192;DHT22;11261;52.456;10.850;2023-01-16T09:14:51;6.30;99.90
22192;DHT22;11261;52.456;10.850;2023-01-16T09:17:23;6.30;99.90
22192;DHT22;11261;52.456;10.850;2023-01-16T09:19:51;6.40;99.90
22192;DHT22;11261;52.456;10.850;2023-01-16T09:22:20;6.50;99.90
22192;DHT22;11261;52.456;10.850;2023-01-16T09:24:49;6.50;99.90
22192;DHT22;11261;52.456;10.850;2023-01-16T09:27:18;6.40;99.90
22192;DHT22;11261;52.456;10.850;2023-01-16T09:29:47;6.50;99.90
22192;DHT22;11261;52.456;10.850;2023-01-16T09:32:15;6.50;99.90
22192;DHT22;11261;52.456;10.850;2023-01-16T09:34:45;6.50;99.90
22192;DHT22;11261;52.456;10.850;2023-01-16T09:37:13;6.60;99.90
22192;DHT22;11261;52.456;10.850;2023-01-16T09:39:42;6.70;99.90
22192;DHT22;11261;52.456;10.850;2023-01-16T09:42:37;6.90;99.90
22192;DHT22;11261;52.456;10.850;2023-01-16T09:45:29;6.90;99.90
22192;DHT22;11261;52.456;10.850;2023-01-16T09:48:01;7.00;99.90
22192;DHT22;11261;52.456;10.850;2023-01-16T09:50:34;6.70;99.90
22192;DHT22;11261;52.456;10.850;2023-01-16T09:53:05;7.10;99.90
22192;DHT22;11261;52.456;10.850;2023-01-16T09:55:55;7.10;99.90
22192;DHT22;11261;52.456;10.850;2023-01-16T09:58:49;7.00;99.90
22192;DHT22;11261;52.456;10.850;2023-01-16T10:01:26;6.90;99.90
22192;DHT22;11261;52.456;10.850;2023-01-16T10:04:09;6.90;99.90
22192;DHT22;11261;52.456;10.850;2023-01-16T10:06:42;6.60;99.90
22192;DHT22;11261;52.456;10.850;2023-01-16T10:09:17;6.60;99.90
22192;DHT22;11261;52.456;10.850;2023-01-16T10:11:56;6.40;99.90
22192;DHT22;11261;52.456;10.850;2023-01-16T10:14:47;6.20;99.90
22192;DHT22;11261;52.456;10.850;2023-01-16T10:17:23;6.20;99.90
22192;DHT22;11261;52.456;10.850;2023-01-16T10:20:11;6.30;99.90
22192;DHT22;11261;52.456;10.850;2023-01-16T10:22:51;6.20;99.90
22192;DHT22;11261;52.456;10.850;2023-01-16T10:25:26;6.00;99.90
22192;DHT22;11261;52.456;10.850;2023-01-16T10:28:05;6.00;99.90
22192;DHT22;11261;52.456;10.850;2023-01-16T10:30:43;5.80;99.90
22192;DHT22;11261;52.456;10.850;2023-01-16T10:33:18;5.80;99.90
22192;DHT22;11261;52.456;10.850;2023-01-16T10:35:51;5.60;99.90
22192;DHT22;11261;52.456;10.850;2023-01-16T10:38:30;5.70;99.90
22192;DHT22;11261;52.456;10.850;2023-01-16T10:41:11;5.60;99.90
22192;DHT22;11261;52.456;10.850;2023-01-16T10:44:01;5.60;99.90
22192;DHT22;11261;52.456;10.850;2023-01-16T10:46:50;5.80;99.90
22192;DHT22;11261;52.456;10.850;2023-01-16T10:49:37;5.80;99.90
22192;DHT22;11261;52.456;10.850;2023-01-16T10:52:05;6.00;99.90
22192;DHT22;11261;52.456;10.850;2023-01-16T10:54:33;6.30;99.90
22192;DHT22;11261;52.456;10.850;2023-01-16T10:57:04;6.30;99.90
22192;DHT22;11261;52.456;10.850;2023-01-16T10:59:33;6.20;99.90
22192;DHT22;11261;52.456;10.850;2023-01-16T11:02:16;6.10;99.90
22192;DHT22;11261;52.456;10.850;2023-01-16T11:04:46;6.20;99.90
22192;DHT22;11261;52.456;10.850;2023-01-16T11:07:16;6.50;99.90
22192;DHT22;11261;52.456;10.850;2023-01-16T11:09:45;6.40;99.90
22192;DHT22;11261;52.456;10.850;2023-01-16T11:12:21;6.30;99.90
22192;DHT22;11261;52.456;10.850;2023-01-16T11:15:14;6.40;99.90
22192;DHT22;11261;52.456;10.850;2023-01-16T11:18:18;6.60;99.90
22192;DHT22;11261;52.456;10.850;2023-01-16T11:20:59;6.50;99.90
22192;DHT22;11261;52.456;10.850;2023-01-16T11:23:37;6.50;99.90
22192;DHT22;11261;52.456;10.850;2023-01-16T11:26:06;6.40;99.90
22192;DHT22;11261;52.456;10.850;2023-01-16T11:28:36;6.60;99.90
22192;DHT22;11261;52.456;10.850;2023-01-16T11:31:10;6.60;99.90
22192;DHT22;11261;52.456;10.850;2023-01-16T11:33:44;6.70;99.90
22192;DHT22;11261;52.456;10.850;2023-01-16T11:36:16;6.70;99.90
22192;DHT22;11261;52.456;10.850;2023-01-16T11:38:46;6.60;99.90
22192;DHT22;11261;52.456;10.850;2023-01-16T11:41:18;6.60;99.90
22192;DHT22;11261;52.456;10.850;2023-01-16T11:44:05;6.60;99.90
22192;DHT22;11261;52.456;10.850;2023-01-16T11:46:57;6.60;99.90
22192;DHT22;11261;52.456;10.850;2023-01-16T11:49:33;6.60;99.90
22192;DHT22;11261;52.456;10.850;2023-01-16T11:52:02;6.60;99.90
22192;DHT22;11261;52.456;10.850;2023-01-16T11:54:32;6.60;99.90
22192;DHT22;11261;52.456;10.850;2023-01-16T11:57:28;6.50;99.90
22192;DHT22;11261;52.456;10.850;2023-01-16T12:00:33;6.60;99.90
22192;DHT22;11261;52.456;10.850;2023-01-16T12:06:11;6.50;99.90
22192;DHT22;11261;52.456;10.850;2023-01-16T12:09:06;6.50;99.90
22192;DHT22;11261;52.456;10.850;2023-01-16T12:11:53;6.50;99.90
22192;DHT22;11261;52.456;10.850;2023-01-16T12:14:30;6.50;99.90
22192;DHT22;11261;52.456;10.850;2023-01-16T12:17:09;6.50;99.90
22192;DHT22;11261;52.456;10.850;2023-01-16T12:19:57;6.40;99.90
22192;DHT22;11261;52.456;10.850;2023-01-16T12:22:41;6.40;99.90
22192;DHT22;11261;52.456;10.850;2023-01-16T12:25:22;6.30;99.90
22192;DHT22;11261;52.456;10.850;2023-01-16T12:27:58;6.20;99.90
22192;DHT22;11261;52.456;10.850;2023-01-16T12:30:36;6.20;99.90
22192;DHT22;11261;52.456;10.850;2023-01-16T12:33:21;6.10;99.90
22192;DHT22;11261;52.456;10.850;2023-01-16T12:35:59;5.90;99.90
22192;DHT22;11261;52.456;10.850;2023-01-16T12:38:36;6.00;99.90
22192;DHT22;11261;52.456;10.850;2023-01-16T12:41:16;5.80;99.90
22192;DHT22;11261;52.456;10.850;2023-01-16T12:44:31;5.80;99.90
22192;DHT22;11261;52.456;10.850;2023-01-16T12:47:27;5.90;99.90
22192;DHT22;11261;52.456;10.850;2023-01-16T12:50:06;5.90;99.90
22192;DHT22;11261;52.456;10.850;2023-01-16T12:52:52;6.10;99.90
22192;DHT22;11261;52.456;10.850;2023-01-16T12:55:37;6.10;99.90
22192;DHT22;11261;52.456;10.850;2023-01-16T12:58:28;5.90;99.90
22192;DHT22;11261;52.456;10.850;2023-01-16T13:01:06;6.00;99.90
22192;DHT22;11261;52.456;10.850;2023-01-16T13:03:39;5.90;99.90
22192;DHT22;11261;52.456;10.850;2023-01-16T13:06:12;6.00;99.90
22192;DHT22;11261;52.456;10.850;2023-01-16T13:08:43;6.10;99.90
22192;DHT22;11261;52.456;10.850;2023-01-16T13:11:20;6.10;99.90
22192;DHT22;11261;52.456;10.850;2023-01-16T13:14:13;6.10;99.90
22192;DHT22;11261;52.456;10.850;2023-01-16T13:16:46;6.10;99.90
22192;DHT22;11261;52.456;10.850;2023-01-16T13:19:20;6.20;99.90
22192;DHT22;11261;52.456;10.850;2023-01-16T13:21:54;6.30;99.90
22192;DHT22;11261;52.456;10.850;2023-01-16T13:24:30;6.20;99.90
22192;DHT22;11261;52.456;10.850;2023-01-16T13:27:03;6.20;99.90
22192;DHT22;11261;52.456;10.850;2023-01-16T13:29:39;6.20;99.90
22192;DHT22;11261;52.456;10.850;2023-01-16T13:32:20;6.30;99.90
22192;DHT22;11261;52.456;10.850;2023-01-16T13:34:55;6.40;99.90
22192;DHT22;11261;52.456;10.850;2023-01-16T13:37:37;6.40;99.90
22192;DHT22;11261;52.456;10.850;2023-01-16T13:40:42;6.40;99.90
22192;DHT22;11261;52.456;10.850;2023-01-16T13:43:18;6.40;99.90
22192;DHT22;11261;52.456;10.850;2023-01-16T13:46:08;6.40;99.90
22192;DHT22;11261;52.456;10.850;2023-01-16T13:48:37;6.40;99.90
22192;DHT22;11261;52.456;10.850;2023-01-16T13:51:11;6.40;99.90
22192;DHT22;11261;52.456;10.850;2023-01-16T13:53:41;6.40;99.90
22192;DHT22;11261;52.456;10.850;2023-01-16T13:56:15;6.40;99.90
22192;DHT22;11261;52.456;10.850;2023-01-16T13:58:48;6.40;99.90
22192;DHT22;11261;52.456;10.850;2023-01-16T14:01:32;6.50;99.90
22192;DHT22;11261;52.456;10.850;2023-01-16T14:04:24;6.40;99.90
22192;DHT22;11261;52.456;10.850;2023-01-16T14:06:54;6.40;99.90
22192;DHT22;11261;52.456;10.850;2023-01-16T14:10:07;6.50;99.90
22192;DHT22;11261;52.456;10.850;2023-01-16T14:12:42;6.50;99.90
22192;DHT22;11261;52.456;10.850;2023-01-16T14:15:18;6.60;99.90
22192;DHT22;11261;52.456;10.850;2023-01-16T14:18:16;6.60;99.90
22192;DHT22;11261;52.456;10.850;2023-01-16T14:20:50;6.60;99.90
22192;DHT22;11261;52.456;10.850;2023-01-16T14:23:23;6.70;99.90
22192;DHT22;11261;52.456;10.850;2023-01-16T14:26:17;6.70;99.90
22192;DHT22;11261;52.456;10.850;2023-01-16T14:28:47;6.70;99.90
22192;DHT22;11261;52.456;10.850;2023-01-16T14:31:24;6.70;99.90
22192;DHT22;11261;52.456;10.850;2023-01-16T14:33:55;6.70;99.90
22192;DHT22;11261;52.456;10.850;2023-01-16T14:36:27;6.60;99.90
22192;DHT22;11261;52.456;10.850;2023-01-16T14:38:56;6.70;99.90
22192;DHT22;11261;52.456;10.850;2023-01-16T14:41:27;6.70;99.90
22192;DHT22;11261;52.456;10.850;2023-01-16T14:44:16;6.70;99.90
22192;DHT22;11261;52.456;10.850;2023-01-16T14:47:11;6.70;99.90
22192;DHT22;11261;52.456;10.850;2023-01-16T14:50:09;6.60;99.90
22192;DHT22;11261;52.456;10.850;2023-01-16T14:53:18;6.60;99.90
22192;DHT22;11261;52.456;10.850;2023-01-16T14:56:24;6.60;99.90
22192;DHT22;11261;52.456;10.850;2023-01-16T14:58:57;6.60;99.90
22192;DHT22;11261;52.456;10.850;2023-01-16T15:01:31;6.60;99.90
22192;DHT22;11261;52.456;10.850;2023-01-16T15:04:22;6.70;99.90
22192;DHT22;11261;52.456;10.850;2023-01-16T15:06:55;6.60;99.90
22192;DHT22;11261;52.456;10.850;2023-01-16T15:09:27;6.70;99.90
22192;DHT22;11261;52.456;10.850;2023-01-16T15:11:59;6.70;99.90
22192;DHT22;11261;52.456;10.850;2023-01-16T15:14:30;6.70;99.90
22192;DHT22;11261;52.456;10.850;2023-01-16T15:17:15;6.70;99.90
22192;DHT22;11261;52.456;10.850;2023-01-16T15:20:21;6.70;99.90
22192;DHT22;11261;52.456;10.850;2023-01-16T15:23:20;6.70;99.90
22192;DHT22;11261;52.456;10.850;2023-01-16T15:28:57;6.60;99.90
22192;DHT22;11261;52.456;10.850;2023-01-16T15:31:32;6.60;99.90
22192;DHT22;11261;52.456;10.850;2023-01-16T15:34:03;6.50;99.90
22192;DHT22;11261;52.456;10.850;2023-01-16T15:36:35;6.50;99.90
22192;DHT22;11261;52.456;10.850;2023-01-16T15:39:20;6.50;99.90
22192;DHT22;11261;52.456;10.850;2023-01-16T15:41:54;6.50;99.90
22192;DHT22;11261;52.456;10.850;2023-01-16T15:44:44;6.50;99.90
22192;DHT22;11261;52.456;10.850;2023-01-16T15:50:50;6.50;99.90
22192;DHT22;11261;52.456;10.850;2023-01-16T15:53:24;6.40;99.90
22192;DHT22;11261;52.456;10.850;2023-01-16T15:56:00;6.40;99.90
22192;DHT22;11261;52.456;10.850;2023-01-16T15:58:29;6.50;99.90
22192;DHT22;11261;52.456;10.850;2023-01-16T16:01:00;6.40;99.90
22192;DHT22;11261;52.456;10.850;2023-01-16T16:03:32;6.40;99.90
22192;DHT22;11261;52.456;10.850;2023-01-16T16:06:05;6.30;99.90
22192;DHT22;11261;52.456;10.850;2023-01-16T16:08:38;6.30;99.90
22192;DHT22;11261;52.456;10.850;2023-01-16T16:11:08;6.30;99.90
22192;DHT22;11261;52.456;10.850;2023-01-16T16:13:55;6.30;99.90
22192;DHT22;11261;52.456;10.850;2023-01-16T16:16:26;6.20;99.90
22192;DHT22;11261;52.456;10.850;2023-01-16T16:19:29;6.20;99.90
22192;DHT22;11261;52.456;10.850;2023-01-16T16:22:01;6.10;99.90
22192;DHT22;11261;52.456;10.850;2023-01-16T16:24:48;6.20;99.90
22192;DHT22;11261;52.456;10.850;2023-01-16T16:27:17;6.20;99.90
22192;DHT22;11261;52.456;10.850;2023-01-16T16:29:49;6.20;99.90
22192;DHT22;11261;52.456;10.850;2023-01-16T16:32:18;6.20;99.90